sensor_id;sensor_type;location;lat;lon;timestamp;P1;durP1;ratioP1;P2;durP2;ratioP2
64887;SDS011;51386;53.082;8.816;2023-05-01T00:01:52;7.23;;;4.00;;
64887;SDS011;51386;53.082;8.816;2023-05-01T00:04:19;11.47;;;5.63;;
64887;SDS011;51386;53.082;8.816;2023-05-01T00:06:47;6.17;;;4.40;;
64887;SDS011;51386;53.082;8.816;2023-05-01T00:09:14;5.47;;;4.10;;
64887;SDS011;51386;53.082;8.816;2023-05-01T00:11:41;7.10;;;4.70;;
64887;SDS011;51386;53.082;8.816;2023-05-01T00:14:08;6.37;;;4.87;;
64887;SDS011;51386;53.082;8.816;2023-05-01T00:16:35;8.03;;;4.70;;
64887;SDS011;51386;53.082;8.816;2023-05-01T00:19:03;7.37;;;4.80;;
64887;SDS011;51386;53.082;8.816;2023-05-01T00:21:30;7.43;;;4.83;;
64887;SDS011;51386;53.082;8.816;2023-05-01T00:23:57;8.07;;;4.70;;
64887;SDS011;51386;53.082;8.816;2023-05-01T00:26:24;4.83;;;4.20;;
64887;SDS011;51386;53.082;8.816;2023-05-01T00:28:55;7.03;;;5.37;;
64887;SDS011;51386;53.082;8.816;2023-05-01T00:31:23;7.50;;;4.90;;
64887;SDS011;51386;53.082;8.816;2023-05-01T00:33:51;5.57;;;4.47;;
64887;SDS011;51386;53.082;8.816;2023-05-01T00:36:19;7.60;;;4.10;;
64887;SDS011;51386;53.082;8.816;2023-05-01T00:38:46;6.37;;;5.00;;
64887;SDS011;51386;53.082;8.816;2023-05-01T00:41:13;6.87;;;4.70;;
64887;SDS011;51386;53.082;8.816;2023-05-01T00:43:40;7.23;;;5.10;;
64887;SDS011;51386;53.082;8.816;2023-05-01T00:46:07;7.73;;;5.07;;
64887;SDS011;51386;53.082;8.816;2023-05-01T00:48:35;6.63;;;4.93;;
64887;SDS011;51386;53.082;8.816;2023-05-01T00:51:03;5.57;;;4.27;;
64887;SDS011;51386;53.082;8.816;2023-05-01T00:53:34;6.33;;;4.70;;
64887;SDS011;51386;53.082;8.816;2023-05-01T00:56:01;5.77;;;4.47;;
64887;SDS011;51386;53.082;8.816;2023-05-01T00:58:29;8.03;;;4.93;;
64887;SDS011;51386;53.082;8.816;2023-05-01T01:00:56;5.43;;;4.50;;
64887;SDS011;51386;53.082;8.816;2023-05-01T01:03:23;6.97;;;4.50;;
64887;SDS011;51386;53.082;8.816;2023-05-01T01:05:52;6.90;;;4.67;;
64887;SDS011;51386;53.082;8.816;2023-05-01T01:08:27;5.63;;;4.63;;
64887;SDS011;51386;53.082;8.816;2023-05-01T01:11:06;5.73;;;4.70;;
64887;SDS011;51386;53.082;8.816;2023-05-01T01:13:53;6.40;;;4.53;;
64887;SDS011;51386;53.082;8.816;2023-05-01T01:16:30;6.63;;;4.53;;
64887;SDS011;51386;53.082;8.816;2023-05-01T01:19:11;8.47;;;4.70;;
64887;SDS011;51386;53.082;8.816;2023-05-01T01:22:22;6.23;;;4.20;;
64887;SDS011;51386;53.082;8.816;2023-05-01T01:28:12;5.97;;;4.00;;
64887;SDS011;51386;53.082;8.816;2023-05-01T01:31:09;5.23;;;4.20;;
64887;SDS011;51386;53.082;8.816;2023-05-01T01:33:47;7.80;;;4.10;;
64887;SDS011;51386;53.082;8.816;2023-05-01T01:36:31;6.20;;;4.47;;
64887;SDS011;51386;53.082;8.816;2023-05-01T01:39:13;6.30;;;4.60;;
64887;SDS011;51386;53.082;8.816;2023-05-01T01:41:52;7.40;;;4.67;;
64887;SDS011;51386;53.082;8.816;2023-05-01T01:44:24;7.20;;;4.40;;
64887;SDS011;51386;53.082;8.816;2023-05-01T01:46:59;6.13;;;4.60;;
64887;SDS011;51386;53.082;8.816;2023-05-01T01:49:36;8.63;;;4.50;;
64887;SDS011;51386;53.082;8.816;2023-05-01T01:52:07;7.33;;;3.90;;
64887;SDS011;51386;53.082;8.816;2023-05-01T01:54:39;5.57;;;4.00;;
64887;SDS011;51386;53.082;8.816;2023-05-01T01:57:15;5.07;;;4.30;;
64887;SDS011;51386;53.082;8.816;2023-05-01T01:59:44;5.90;;;4.60;;
64887;SDS011;51386;53.082;8.816;2023-05-01T02:02:14;6.97;;;4.33;;
64887;SDS011;51386;53.082;8.816;2023-05-01T02:04:46;8.30;;;4.53;;
64887;SDS011;51386;53.082;8.816;2023-05-01T02:07:15;6.83;;;4.33;;
64887;SDS011;51386;53.082;8.816;2023-05-01T02:09:45;7.17;;;4.53;;
64887;SDS011;51386;53.082;8.816;2023-05-01T02:12:16;6.87;;;3.77;;
64887;SDS011;51386;53.082;8.816;2023-05-01T02:14:45;6.30;;;4.43;;
64887;SDS011;51386;53.082;8.816;2023-05-01T02:17:16;5.37;;;4.13;;
64887;SDS011;51386;53.082;8.816;2023-05-01T02:19:47;5.20;;;4.17;;
64887;SDS011;51386;53.082;8.816;2023-05-01T02:22:18;8.20;;;4.77;;
64887;SDS011;51386;53.082;8.816;2023-05-01T02:24:47;5.13;;;4.00;;
64887;SDS011;51386;53.082;8.816;2023-05-01T02:27:15;5.67;;;3.90;;
64887;SDS011;51386;53.082;8.816;2023-05-01T02:29:49;5.67;;;3.93;;
64887;SDS011;51386;53.082;8.816;2023-05-01T02:32:17;7.67;;;4.37;;
64887;SDS011;51386;53.082;8.816;2023-05-01T02:34:45;5.70;;;4.17;;
64887;SDS011;51386;53.082;8.816;2023-05-01T02:37:13;4.53;;;3.70;;
64887;SDS011;51386;53.082;8.816;2023-05-01T02:39:41;10.83;;;4.30;;
64887;SDS011;51386;53.082;8.816;2023-05-01T02:42:08;6.93;;;3.53;;
64887;SDS011;51386;53.082;8.816;2023-05-01T02:44:38;7.87;;;3.77;;
64887;SDS011;51386;53.082;8.816;2023-05-01T02:47:14;5.23;;;4.20;;
64887;SDS011;51386;53.082;8.816;2023-05-01T02:49:45;3.90;;;3.50;;
64887;SDS011;51386;53.082;8.816;2023-05-01T02:52:16;7.80;;;3.63;;
64887;SDS011;51386;53.082;8.816;2023-05-01T02:54:45;6.23;;;3.27;;
64887;SDS011;51386;53.082;8.816;2023-05-01T02:57:13;4.57;;;3.30;;
64887;SDS011;51386;53.082;8.816;2023-05-01T02:59:42;7.40;;;4.47;;
64887;SDS011;51386;53.082;8.816;2023-05-01T03:02:09;6.33;;;3.90;;
64887;SDS011;51386;53.082;8.816;2023-05-01T03:04:36;6.93;;;4.13;;
64887;SDS011;51386;53.082;8.816;2023-05-01T03:07:03;6.77;;;4.23;;
64887;SDS011;51386;53.082;8.816;2023-05-01T03:09:32;7.30;;;4.03;;
64887;SDS011;51386;53.082;8.816;2023-05-01T03:11:59;5.83;;;3.80;;
64887;SDS011;51386;53.082;8.816;2023-05-01T03:14:26;7.80;;;4.30;;
64887;SDS011;51386;53.082;8.816;2023-05-01T03:16:53;6.47;;;3.40;;
64887;SDS011;51386;53.082;8.816;2023-05-01T03:19:21;5.03;;;3.37;;
64887;SDS011;51386;53.082;8.816;2023-05-01T03:21:48;5.23;;;3.70;;
64887;SDS011;51386;53.082;8.816;2023-05-01T03:24:15;6.50;;;4.67;;
64887;SDS011;51386;53.082;8.816;2023-05-01T03:26:43;4.00;;;2.90;;
64887;SDS011;51386;53.082;8.816;2023-05-01T03:29:10;4.90;;;3.33;;
64887;SDS011;51386;53.082;8.816;2023-05-01T03:31:38;6.03;;;3.73;;
64887;SDS011;51386;53.082;8.816;2023-05-01T03:34:05;6.67;;;3.50;;
64887;SDS011;51386;53.082;8.816;2023-05-01T03:36:32;6.47;;;3.73;;
64887;SDS011;51386;53.082;8.816;2023-05-01T03:38:59;4.70;;;3.60;;
64887;SDS011;51386;53.082;8.816;2023-05-01T03:41:26;4.97;;;3.77;;
64887;SDS011;51386;53.082;8.816;2023-05-01T03:43:54;4.90;;;3.53;;
64887;SDS011;51386;53.082;8.816;2023-05-01T03:46:21;5.70;;;3.23;;
64887;SDS011;51386;53.082;8.816;2023-05-01T03:48:49;5.83;;;3.33;;
64887;SDS011;51386;53.082;8.816;2023-05-01T03:51:16;4.70;;;3.17;;
64887;SDS011;51386;53.082;8.816;2023-05-01T03:53:43;6.83;;;4.03;;
64887;SDS011;51386;53.082;8.816;2023-05-01T03:56:10;6.60;;;3.80;;
64887;SDS011;51386;53.082;8.816;2023-05-01T03:58:37;7.37;;;3.47;;
64887;SDS011;51386;53.082;8.816;2023-05-01T04:01:05;7.60;;;3.97;;
64887;SDS011;51386;53.082;8.816;2023-05-01T04:03:32;5.80;;;4.10;;
64887;SDS011;51386;53.082;8.816;2023-05-01T04:05:59;9.53;;;3.83;;
64887;SDS011;51386;53.082;8.816;2023-05-01T04:08:26;6.53;;;4.20;;
64887;SDS011;51386;53.082;8.816;2023-05-01T04:10:53;8.63;;;4.77;;
64887;SDS011;51386;53.082;8.816;2023-05-01T04:13:20;8.33;;;4.10;;
64887;SDS011;51386;53.082;8.816;2023-05-01T04:15:47;7.17;;;3.53;;
64887;SDS011;51386;53.082;8.816;2023-05-01T04:18:15;5.80;;;4.40;;
64887;SDS011;51386;53.082;8.816;2023-05-01T04:20:42;7.53;;;4.20;;
64887;SDS011;51386;53.082;8.816;2023-05-01T04:23:09;8.37;;;5.17;;
64887;SDS011;51386;53.082;8.816;2023-05-01T04:25:37;7.47;;;4.63;;
64887;SDS011;51386;53.082;8.816;2023-05-01T04:28:04;6.13;;;4.67;;
64887;SDS011;51386;53.082;8.816;2023-05-01T04:30:31;5.77;;;4.37;;
64887;SDS011;51386;53.082;8.816;2023-05-01T04:32:59;9.30;;;4.27;;
64887;SDS011;51386;53.082;8.816;2023-05-01T04:35:28;8.53;;;4.53;;
64887;SDS011;51386;53.082;8.816;2023-05-01T04:37:55;6.17;;;3.70;;
64887;SDS011;51386;53.082;8.816;2023-05-01T04:40:22;8.60;;;4.23;;
64887;SDS011;51386;53.082;8.816;2023-05-01T04:42:49;5.93;;;4.33;;
64887;SDS011;51386;53.082;8.816;2023-05-01T04:45:16;6.67;;;3.73;;
64887;SDS011;51386;53.082;8.816;2023-05-01T04:47:43;7.80;;;4.50;;
64887;SDS011;51386;53.082;8.816;2023-05-01T04:50:10;7.10;;;4.03;;
64887;SDS011;51386;53.082;8.816;2023-05-01T04:52:38;5.67;;;3.93;;
64887;SDS011;51386;53.082;8.816;2023-05-01T04:55:06;7.37;;;3.97;;
64887;SDS011;51386;53.082;8.816;2023-05-01T04:57:34;4.13;;;3.40;;
64887;SDS011;51386;53.082;8.816;2023-05-01T05:00:02;5.60;;;3.70;;
64887;SDS011;51386;53.082;8.816;2023-05-01T05:02:30;6.03;;;4.30;;
64887;SDS011;51386;53.082;8.816;2023-05-01T05:04:57;5.67;;;3.57;;
64887;SDS011;51386;53.082;8.816;2023-05-01T05:07:24;8.43;;;3.70;;
64887;SDS011;51386;53.082;8.816;2023-05-01T05:09:52;5.40;;;4.30;;
64887;SDS011;51386;53.082;8.816;2023-05-01T05:12:20;6.10;;;4.00;;
64887;SDS011;51386;53.082;8.816;2023-05-01T05:14:47;6.63;;;4.00;;
64887;SDS011;51386;53.082;8.816;2023-05-01T05:17:13;5.57;;;4.43;;
64887;SDS011;51386;53.082;8.816;2023-05-01T05:19:40;5.73;;;3.87;;
64887;SDS011;51386;53.082;8.816;2023-05-01T05:22:07;8.20;;;4.53;;
64887;SDS011;51386;53.082;8.816;2023-05-01T05:24:34;6.40;;;3.80;;
64887;SDS011;51386;53.082;8.816;2023-05-01T05:27:03;9.40;;;4.70;;
64887;SDS011;51386;53.082;8.816;2023-05-01T05:29:32;4.73;;;3.77;;
64887;SDS011;51386;53.082;8.816;2023-05-01T05:32:00;4.87;;;4.20;;
64887;SDS011;51386;53.082;8.816;2023-05-01T05:34:27;6.97;;;4.53;;
64887;SDS011;51386;53.082;8.816;2023-05-01T05:36:54;6.90;;;4.57;;
64887;SDS011;51386;53.082;8.816;2023-05-01T05:39:21;6.40;;;4.40;;
64887;SDS011;51386;53.082;8.816;2023-05-01T05:41:49;6.97;;;4.50;;
64887;SDS011;51386;53.082;8.816;2023-05-01T05:44:20;6.90;;;4.20;;
64887;SDS011;51386;53.082;8.816;2023-05-01T05:46:47;9.20;;;3.97;;
64887;SDS011;51386;53.082;8.816;2023-05-01T05:49:14;6.90;;;4.50;;
64887;SDS011;51386;53.082;8.816;2023-05-01T05:51:40;7.63;;;4.80;;
64887;SDS011;51386;53.082;8.816;2023-05-01T05:54:07;10.43;;;4.20;;
64887;SDS011;51386;53.082;8.816;2023-05-01T05:56:34;5.80;;;4.47;;
64887;SDS011;51386;53.082;8.816;2023-05-01T05:59:01;7.13;;;4.33;;
64887;SDS011;51386;53.082;8.816;2023-05-01T06:01:31;5.47;;;4.13;;
64887;SDS011;51386;53.082;8.816;2023-05-01T06:03:58;6.53;;;3.90;;
64887;SDS011;51386;53.082;8.816;2023-05-01T06:06:25;5.40;;;3.97;;
64887;SDS011;51386;53.082;8.816;2023-05-01T06:08:52;7.67;;;3.90;;
64887;SDS011;51386;53.082;8.816;2023-05-01T06:11:19;8.70;;;4.37;;
64887;SDS011;51386;53.082;8.816;2023-05-01T06:13:47;6.43;;;3.97;;
64887;SDS011;51386;53.082;8.816;2023-05-01T06:16:14;7.60;;;4.13;;
64887;SDS011;51386;53.082;8.816;2023-05-01T06:18:42;7.07;;;3.60;;
64887;SDS011;51386;53.082;8.816;2023-05-01T06:21:11;5.63;;;4.20;;
64887;SDS011;51386;53.082;8.816;2023-05-01T06:23:38;6.07;;;3.90;;
64887;SDS011;51386;53.082;8.816;2023-05-01T06:26:05;5.63;;;4.27;;
64887;SDS011;51386;53.082;8.816;2023-05-01T06:28:33;5.97;;;4.07;;
64887;SDS011;51386;53.082;8.816;2023-05-01T06:31:00;6.33;;;4.17;;
64887;SDS011;51386;53.082;8.816;2023-05-01T06:33:27;8.83;;;4.63;;
64887;SDS011;51386;53.082;8.816;2023-05-01T06:35:55;6.90;;;3.50;;
64887;SDS011;51386;53.082;8.816;2023-05-01T06:38:24;6.97;;;3.83;;
64887;SDS011;51386;53.082;8.816;2023-05-01T06:40:52;6.00;;;3.80;;
64887;SDS011;51386;53.082;8.816;2023-05-01T06:43:19;6.97;;;3.93;;
64887;SDS011;51386;53.082;8.816;2023-05-01T06:45:46;6.40;;;4.03;;
64887;SDS011;51386;53.082;8.816;2023-05-01T06:48:13;5.30;;;3.67;;
64887;SDS011;51386;53.082;8.816;2023-05-01T06:50:40;7.77;;;4.07;;
64887;SDS011;51386;53.082;8.816;2023-05-01T06:53:08;6.27;;;3.47;;
64887;SDS011;51386;53.082;8.816;2023-05-01T06:55:35;4.13;;;3.40;;
64887;SDS011;51386;53.082;8.816;2023-05-01T06:58:02;5.10;;;3.97;;
64887;SDS011;51386;53.082;8.816;2023-05-01T07:00:48;4.73;;;3.50;;
64887;SDS011;51386;53.082;8.816;2023-05-01T07:03:16;4.30;;;3.90;;
64887;SDS011;51386;53.082;8.816;2023-05-01T07:05:43;5.07;;;3.43;;
64887;SDS011;51386;53.082;8.816;2023-05-01T07:08:11;6.90;;;4.20;;
64887;SDS011;51386;53.082;8.816;2023-05-01T07:10:39;8.90;;;4.20;;
64887;SDS011;51386;53.082;8.816;2023-05-01T07:13:07;7.47;;;3.83;;
64887;SDS011;51386;53.082;8.816;2023-05-01T07:15:35;5.57;;;3.77;;
64887;SDS011;51386;53.082;8.816;2023-05-01T07:18:02;6.37;;;3.60;;
64887;SDS011;51386;53.082;8.816;2023-05-01T07:20:31;5.50;;;3.70;;
64887;SDS011;51386;53.082;8.816;2023-05-01T07:22:59;6.30;;;3.90;;
64887;SDS011;51386;53.082;8.816;2023-05-01T07:25:27;6.03;;;3.30;;
64887;SDS011;51386;53.082;8.816;2023-05-01T07:27:55;7.07;;;4.10;;
64887;SDS011;51386;53.082;8.816;2023-05-01T07:30:22;5.47;;;3.50;;
64887;SDS011;51386;53.082;8.816;2023-05-01T07:32:49;6.60;;;4.00;;
64887;SDS011;51386;53.082;8.816;2023-05-01T07:35:16;6.47;;;3.80;;
64887;SDS011;51386;53.082;8.816;2023-05-01T07:37:43;6.00;;;3.50;;
64887;SDS011;51386;53.082;8.816;2023-05-01T07:40:10;6.67;;;3.80;;
64887;SDS011;51386;53.082;8.816;2023-05-01T07:42:39;5.17;;;3.40;;
64887;SDS011;51386;53.082;8.816;2023-05-01T07:45:06;4.63;;;3.43;;
64887;SDS011;51386;53.082;8.816;2023-05-01T07:47:34;6.57;;;3.77;;
64887;SDS011;51386;53.082;8.816;2023-05-01T07:50:01;3.70;;;3.20;;
64887;SDS011;51386;53.082;8.816;2023-05-01T07:52:29;4.97;;;3.20;;
64887;SDS011;51386;53.082;8.816;2023-05-01T07:54:56;4.67;;;3.10;;
64887;SDS011;51386;53.082;8.816;2023-05-01T07:57:23;5.17;;;3.70;;
64887;SDS011;51386;53.082;8.816;2023-05-01T07:59:53;4.23;;;3.50;;
64887;SDS011;51386;53.082;8.816;2023-05-01T08:02:22;4.90;;;3.13;;
64887;SDS011;51386;53.082;8.816;2023-05-01T08:04:49;5.10;;;4.10;;
64887;SDS011;51386;53.082;8.816;2023-05-01T08:07:16;3.57;;;3.27;;
64887;SDS011;51386;53.082;8.816;2023-05-01T08:09:44;5.63;;;3.30;;
64887;SDS011;51386;53.082;8.816;2023-05-01T08:12:11;7.40;;;4.03;;
64887;SDS011;51386;53.082;8.816;2023-05-01T08:14:39;5.53;;;3.70;;
64887;SDS011;51386;53.082;8.816;2023-05-01T08:17:07;3.80;;;3.17;;
64887;SDS011;51386;53.082;8.816;2023-05-01T08:19:34;7.17;;;3.30;;
64887;SDS011;51386;53.082;8.816;2023-05-01T08:22:01;5.90;;;4.07;;
64887;SDS011;51386;53.082;8.816;2023-05-01T08:24:28;4.90;;;3.43;;
64887;SDS011;51386;53.082;8.816;2023-05-01T08:26:55;5.07;;;3.47;;
64887;SDS011;51386;53.082;8.816;2023-05-01T08:29:22;6.17;;;3.60;;
64887;SDS011;51386;53.082;8.816;2023-05-01T08:31:51;4.13;;;3.33;;
64887;SDS011;51386;53.082;8.816;2023-05-01T08:34:20;6.67;;;3.53;;
64887;SDS011;51386;53.082;8.816;2023-05-01T08:36:48;4.60;;;3.40;;
64887;SDS011;51386;53.082;8.816;2023-05-01T08:39:15;4.27;;;3.00;;
64887;SDS011;51386;53.082;8.816;2023-05-01T08:41:44;6.23;;;3.17;;
64887;SDS011;51386;53.082;8.816;2023-05-01T08:44:12;4.63;;;3.60;;
64887;SDS011;51386;53.082;8.816;2023-05-01T08:46:44;7.57;;;3.00;;
64887;SDS011;51386;53.082;8.816;2023-05-01T08:49:16;4.20;;;3.10;;
64887;SDS011;51386;53.082;8.816;2023-05-01T08:51:47;4.63;;;3.30;;
64887;SDS011;51386;53.082;8.816;2023-05-01T08:54:19;5.33;;;3.30;;
64887;SDS011;51386;53.082;8.816;2023-05-01T08:56:47;3.27;;;2.97;;
64887;SDS011;51386;53.082;8.816;2023-05-01T08:59:16;3.53;;;3.07;;
64887;SDS011;51386;53.082;8.816;2023-05-01T09:01:45;4.47;;;3.30;;
64887;SDS011;51386;53.082;8.816;2023-05-01T09:04:14;6.30;;;3.80;;
64887;SDS011;51386;53.082;8.816;2023-05-01T09:06:44;4.90;;;3.43;;
64887;SDS011;51386;53.082;8.816;2023-05-01T09:09:11;5.40;;;3.67;;
64887;SDS011;51386;53.082;8.816;2023-05-01T09:11:38;6.83;;;3.20;;
64887;SDS011;51386;53.082;8.816;2023-05-01T09:14:05;3.60;;;3.30;;
64887;SDS011;51386;53.082;8.816;2023-05-01T09:16:33;8.33;;;4.13;;
64887;SDS011;51386;53.082;8.816;2023-05-01T09:19:01;4.47;;;3.20;;
64887;SDS011;51386;53.082;8.816;2023-05-01T09:21:28;5.73;;;3.37;;
64887;SDS011;51386;53.082;8.816;2023-05-01T09:23:58;4.90;;;3.50;;
64887;SDS011;51386;53.082;8.816;2023-05-01T09:26:25;6.93;;;3.73;;
64887;SDS011;51386;53.082;8.816;2023-05-01T09:28:53;4.63;;;3.37;;
64887;SDS011;51386;53.082;8.816;2023-05-01T09:31:24;3.63;;;3.30;;
64887;SDS011;51386;53.082;8.816;2023-05-01T09:33:58;4.27;;;3.53;;
64887;SDS011;51386;53.082;8.816;2023-05-01T09:36:28;3.97;;;3.07;;
64887;SDS011;51386;53.082;8.816;2023-05-01T09:38:59;5.33;;;3.60;;
64887;SDS011;51386;53.082;8.816;2023-05-01T09:41:29;5.37;;;3.47;;
64887;SDS011;51386;53.082;8.816;2023-05-01T09:43:58;3.73;;;2.97;;
64887;SDS011;51386;53.082;8.816;2023-05-01T09:46:37;3.80;;;3.47;;
64887;SDS011;51386;53.082;8.816;2023-05-01T09:49:09;4.33;;;3.23;;
64887;SDS011;51386;53.082;8.816;2023-05-01T09:51:35;4.63;;;3.87;;
64887;SDS011;51386;53.082;8.816;2023-05-01T09:54:04;10.20;;;3.30;;
64887;SDS011;51386;53.082;8.816;2023-05-01T09:56:45;5.37;;;3.50;;
64887;SDS011;51386;53.082;8.816;2023-05-01T09:59:14;5.90;;;3.80;;
64887;SDS011;51386;53.082;8.816;2023-05-01T10:01:43;4.50;;;3.87;;
64887;SDS011;51386;53.082;8.816;2023-05-01T10:04:14;3.80;;;3.50;;
64887;SDS011;51386;53.082;8.816;2023-05-01T10:06:41;4.20;;;3.23;;
64887;SDS011;51386;53.082;8.816;2023-05-01T10:09:10;5.43;;;3.73;;
64887;SDS011;51386;53.082;8.816;2023-05-01T10:11:46;5.50;;;3.93;;
64887;SDS011;51386;53.082;8.816;2023-05-01T10:14:14;3.70;;;3.40;;
64887;SDS011;51386;53.082;8.816;2023-05-01T10:16:41;4.10;;;3.30;;
64887;SDS011;51386;53.082;8.816;2023-05-01T10:19:08;4.43;;;3.03;;
64887;SDS011;51386;53.082;8.816;2023-05-01T10:21:36;6.47;;;3.97;;
64887;SDS011;51386;53.082;8.816;2023-05-01T10:24:03;3.83;;;2.83;;
64887;SDS011;51386;53.082;8.816;2023-05-01T10:26:33;4.17;;;3.47;;
64887;SDS011;51386;53.082;8.816;2023-05-01T10:29:03;3.93;;;3.43;;
64887;SDS011;51386;53.082;8.816;2023-05-01T10:31:30;4.00;;;3.50;;
64887;SDS011;51386;53.082;8.816;2023-05-01T10:33:58;3.50;;;3.20;;
64887;SDS011;51386;53.082;8.816;2023-05-01T10:36:29;5.60;;;3.10;;
64887;SDS011;51386;53.082;8.816;2023-05-01T10:39:02;6.00;;;3.60;;
64887;SDS011;51386;53.082;8.816;2023-05-01T10:44:36;5.97;;;3.53;;
64887;SDS011;51386;53.082;8.816;2023-05-01T10:50:10;3.93;;;3.10;;
64887;SDS011;51386;53.082;8.816;2023-05-01T10:55:43;5.87;;;3.53;;
64887;SDS011;51386;53.082;8.816;2023-05-01T10:58:14;5.60;;;3.60;;
64887;SDS011;51386;53.082;8.816;2023-05-01T11:01:31;6.70;;;3.70;;
64887;SDS011;51386;53.082;8.816;2023-05-01T11:04:01;4.68;;;3.70;;
64887;SDS011;51386;53.082;8.816;2023-05-01T11:06:30;4.85;;;4.03;;
64887;SDS011;51386;53.082;8.816;2023-05-01T11:08:58;6.43;;;4.05;;
64887;SDS011;51386;53.082;8.816;2023-05-01T11:11:47;3.70;;;2.88;;
64887;SDS011;51386;53.082;8.816;2023-05-01T11:14:16;4.68;;;3.80;;
64887;SDS011;51386;53.082;8.816;2023-05-01T11:16:44;6.10;;;3.38;;
64887;SDS011;51386;53.082;8.816;2023-05-01T11:22:13;2.93;;;2.63;;
64887;SDS011;51386;53.082;8.816;2023-05-01T11:24:40;3.43;;;3.00;;
64887;SDS011;51386;53.082;8.816;2023-05-01T11:27:11;5.57;;;3.53;;
64887;SDS011;51386;53.082;8.816;2023-05-01T11:29:41;5.40;;;3.83;;
64887;SDS011;51386;53.082;8.816;2023-05-01T11:32:14;5.20;;;3.45;;
64887;SDS011;51386;53.082;8.816;2023-05-01T11:34:49;4.20;;;2.70;;
64887;SDS011;51386;53.082;8.816;2023-05-01T11:37:17;3.42;;;3.08;;
64887;SDS011;51386;53.082;8.816;2023-05-01T11:39:48;3.53;;;2.88;;
64887;SDS011;51386;53.082;8.816;2023-05-01T11:42:19;5.00;;;3.92;;
64887;SDS011;51386;53.082;8.816;2023-05-01T11:45:08;3.88;;;2.95;;
64887;SDS011;51386;53.082;8.816;2023-05-01T11:47:36;4.05;;;2.95;;
64887;SDS011;51386;53.082;8.816;2023-05-01T11:50:04;3.20;;;2.90;;
64887;SDS011;51386;53.082;8.816;2023-05-01T11:52:40;4.38;;;3.03;;
64887;SDS011;51386;53.082;8.816;2023-05-01T11:55:09;2.88;;;2.58;;
64887;SDS011;51386;53.082;8.816;2023-05-01T11:57:46;3.95;;;2.42;;
64887;SDS011;51386;53.082;8.816;2023-05-01T12:00:25;2.47;;;2.10;;
64887;SDS011;51386;53.082;8.816;2023-05-01T12:02:59;3.67;;;2.20;;
64887;SDS011;51386;53.082;8.816;2023-05-01T12:05:28;3.30;;;2.03;;
64887;SDS011;51386;53.082;8.816;2023-05-01T12:08:10;4.65;;;2.63;;
64887;SDS011;51386;53.082;8.816;2023-05-01T12:10:40;3.17;;;2.58;;
64887;SDS011;51386;53.082;8.816;2023-05-01T12:13:09;3.20;;;2.50;;
64887;SDS011;51386;53.082;8.816;2023-05-01T12:15:40;2.50;;;2.10;;
64887;SDS011;51386;53.082;8.816;2023-05-01T12:18:10;3.05;;;2.75;;
64887;SDS011;51386;53.082;8.816;2023-05-01T12:20:40;2.42;;;2.22;;
64887;SDS011;51386;53.082;8.816;2023-05-01T12:23:09;3.47;;;2.60;;
64887;SDS011;51386;53.082;8.816;2023-05-01T12:25:39;3.13;;;2.70;;
64887;SDS011;51386;53.082;8.816;2023-05-01T12:28:08;2.92;;;2.13;;
64887;SDS011;51386;53.082;8.816;2023-05-01T12:30:39;2.67;;;2.38;;
64887;SDS011;51386;53.082;8.816;2023-05-01T12:33:11;2.53;;;2.33;;
64887;SDS011;51386;53.082;8.816;2023-05-01T12:35:41;2.65;;;2.40;;
64887;SDS011;51386;53.082;8.816;2023-05-01T12:38:13;2.90;;;2.22;;
64887;SDS011;51386;53.082;8.816;2023-05-01T12:40:52;3.63;;;2.50;;
64887;SDS011;51386;53.082;8.816;2023-05-01T12:43:21;2.63;;;2.42;;
64887;SDS011;51386;53.082;8.816;2023-05-01T12:45:57;3.00;;;2.10;;
64887;SDS011;51386;53.082;8.816;2023-05-01T12:48:25;2.50;;;2.20;;
64887;SDS011;51386;53.082;8.816;2023-05-01T12:50:55;3.88;;;2.10;;
64887;SDS011;51386;53.082;8.816;2023-05-01T12:53:23;3.63;;;2.00;;
64887;SDS011;51386;53.082;8.816;2023-05-01T12:55:54;2.92;;;2.20;;
64887;SDS011;51386;53.082;8.816;2023-05-01T12:58:23;2.70;;;2.00;;
64887;SDS011;51386;53.082;8.816;2023-05-01T13:01:02;4.05;;;2.10;;
64887;SDS011;51386;53.082;8.816;2023-05-01T13:03:30;2.90;;;2.03;;
64887;SDS011;51386;53.082;8.816;2023-05-01T13:05:59;2.15;;;1.85;;
64887;SDS011;51386;53.082;8.816;2023-05-01T13:08:29;2.13;;;1.95;;
64887;SDS011;51386;53.082;8.816;2023-05-01T13:10:58;4.07;;;2.10;;
64887;SDS011;51386;53.082;8.816;2023-05-01T13:13:28;2.60;;;1.67;;
64887;SDS011;51386;53.082;8.816;2023-05-01T13:16:05;2.43;;;1.90;;
64887;SDS011;51386;53.082;8.816;2023-05-01T13:18:44;3.77;;;2.20;;
64887;SDS011;51386;53.082;8.816;2023-05-01T13:21:13;2.53;;;1.80;;
64887;SDS011;51386;53.082;8.816;2023-05-01T13:23:42;2.03;;;1.93;;
64887;SDS011;51386;53.082;8.816;2023-05-01T13:26:23;2.57;;;1.77;;
64887;SDS011;51386;53.082;8.816;2023-05-01T13:28:52;2.00;;;1.53;;
64887;SDS011;51386;53.082;8.816;2023-05-01T13:31:22;1.57;;;1.33;;
64887;SDS011;51386;53.082;8.816;2023-05-01T13:33:49;2.33;;;1.47;;
64887;SDS011;51386;53.082;8.816;2023-05-01T13:36:18;1.80;;;1.53;;
64887;SDS011;51386;53.082;8.816;2023-05-01T13:38:53;3.77;;;1.83;;
64887;SDS011;51386;53.082;8.816;2023-05-01T13:41:23;2.07;;;1.80;;
64887;SDS011;51386;53.082;8.816;2023-05-01T13:43:52;3.10;;;2.00;;
64887;SDS011;51386;53.082;8.816;2023-05-01T13:46:23;1.90;;;1.40;;
64887;SDS011;51386;53.082;8.816;2023-05-01T13:48:54;3.23;;;1.70;;
64887;SDS011;51386;53.082;8.816;2023-05-01T13:51:23;1.67;;;1.40;;
64887;SDS011;51386;53.082;8.816;2023-05-01T13:53:52;2.10;;;1.70;;
64887;SDS011;51386;53.082;8.816;2023-05-01T13:56:21;2.70;;;1.60;;
64887;SDS011;51386;53.082;8.816;2023-05-01T13:58:48;1.47;;;1.30;;
64887;SDS011;51386;53.082;8.816;2023-05-01T14:01:16;5.00;;;1.63;;
64887;SDS011;51386;53.082;8.816;2023-05-01T14:03:47;2.40;;;1.53;;
64887;SDS011;51386;53.082;8.816;2023-05-01T14:06:15;6.03;;;1.67;;
64887;SDS011;51386;53.082;8.816;2023-05-01T14:08:44;1.50;;;1.40;;
64887;SDS011;51386;53.082;8.816;2023-05-01T14:11:13;2.77;;;1.60;;
64887;SDS011;51386;53.082;8.816;2023-05-01T14:13:41;3.83;;;1.80;;
64887;SDS011;51386;53.082;8.816;2023-05-01T14:16:10;1.77;;;1.20;;
64887;SDS011;51386;53.082;8.816;2023-05-01T14:18:48;1.77;;;1.20;;
64887;SDS011;51386;53.082;8.816;2023-05-01T14:21:18;3.60;;;1.57;;
64887;SDS011;51386;53.082;8.816;2023-05-01T14:23:46;3.20;;;2.20;;
64887;SDS011;51386;53.082;8.816;2023-05-01T14:26:15;1.57;;;1.40;;
64887;SDS011;51386;53.082;8.816;2023-05-01T14:28:44;2.00;;;1.40;;
64887;SDS011;51386;53.082;8.816;2023-05-01T14:31:14;1.80;;;1.40;;
64887;SDS011;51386;53.082;8.816;2023-05-01T14:33:53;1.90;;;1.70;;
64887;SDS011;51386;53.082;8.816;2023-05-01T14:36:23;4.17;;;2.30;;
64887;SDS011;51386;53.082;8.816;2023-05-01T14:38:50;3.03;;;2.70;;
64887;SDS011;51386;53.082;8.816;2023-05-01T14:41:21;3.73;;;2.00;;
64887;SDS011;51386;53.082;8.816;2023-05-01T14:43:49;2.53;;;2.30;;
64887;SDS011;51386;53.082;8.816;2023-05-01T14:46:23;2.30;;;1.70;;
64887;SDS011;51386;53.082;8.816;2023-05-01T14:48:56;1.50;;;1.40;;
64887;SDS011;51386;53.082;8.816;2023-05-01T14:51:24;2.17;;;1.50;;
64887;SDS011;51386;53.082;8.816;2023-05-01T14:53:53;3.73;;;1.70;;
64887;SDS011;51386;53.082;8.816;2023-05-01T14:56:20;4.53;;;2.10;;
64887;SDS011;51386;53.082;8.816;2023-05-01T14:58:48;3.80;;;2.00;;
64887;SDS011;51386;53.082;8.816;2023-05-01T15:01:15;3.83;;;2.03;;
64887;SDS011;51386;53.082;8.816;2023-05-01T15:03:43;2.23;;;1.93;;
64887;SDS011;51386;53.082;8.816;2023-05-01T15:06:12;2.80;;;1.90;;
64887;SDS011;51386;53.082;8.816;2023-05-01T15:08:39;3.33;;;1.80;;
64887;SDS011;51386;53.082;8.816;2023-05-01T15:11:06;2.20;;;2.00;;
64887;SDS011;51386;53.082;8.816;2023-05-01T15:13:33;2.23;;;2.03;;
64887;SDS011;51386;53.082;8.816;2023-05-01T15:16:01;3.43;;;3.00;;
64887;SDS011;51386;53.082;8.816;2023-05-01T15:18:29;2.40;;;2.20;;